createdAt,value
2018-11-26T00:04:24.528Z,97.50
2018-11-26T00:09:27.743Z,97.50
2018-11-26T00:14:30.964Z,97.50
2018-11-26T00:19:34.184Z,97.50
2018-11-26T00:24:37.391Z,97.50
2018-11-26T00:29:40.657Z,97.50
2018-11-26T00:34:43.910Z,97.50
2018-11-26T00:39:47.152Z,97.50
2018-11-26T00:44:50.379Z,97.50
2018-11-26T00:49:53.615Z,97.50
2018-11-26T00:54:56.947Z,97.50
2018-11-26T01:00:00.176Z,97.50
2018-11-26T01:05:03.447Z,97.50
2018-11-26T01:10:06.704Z,97.50
2018-11-26T01:15:09.964Z,97.50
2018-11-26T01:20:13.220Z,97.50
2018-11-26T01:25:16.468Z,97.50
2018-11-26T01:30:19.720Z,97.50
2018-11-26T01:35:23.793Z,97.50
2018-11-26T01:40:32.502Z,97.50
2018-11-26T01:45:35.812Z,97.50
2018-11-26T01:50:39.052Z,97.50
2018-11-26T01:55:42.282Z,97.50
2018-11-26T02:00:45.517Z,97.50
2018-11-26T02:05:48.743Z,97.50
2018-11-26T02:10:52.069Z,97.50
2018-11-26T02:15:55.289Z,97.50
2018-11-26T02:20:58.538Z,97.50
2018-11-26T02:26:01.779Z,97.50
2018-11-26T02:31:05.259Z,97.50
2018-11-26T02:36:08.508Z,97.50
2018-11-26T02:41:11.727Z,97.50
2018-11-26T02:46:15.027Z,97.50
2018-11-26T02:51:18.260Z,97.50
2018-11-26T02:56:21.514Z,97.50
2018-11-26T03:01:24.660Z,97.50
2018-11-26T03:06:27.815Z,97.50
2018-11-26T03:11:30.972Z,97.50
2018-11-26T03:16:34.129Z,97.50
2018-11-26T03:21:37.276Z,97.50
2018-11-26T03:26:40.444Z,97.50
2018-11-26T03:31:43.653Z,97.50
2018-11-26T03:36:46.808Z,97.50
2018-11-26T03:41:50.097Z,97.50
2018-11-26T03:46:53.264Z,97.50
2018-11-26T03:51:56.456Z,97.50
2018-11-26T03:56:59.628Z,97.50
2018-11-26T04:02:02.799Z,97.50
2018-11-26T04:07:06.368Z,97.50
2018-11-26T04:12:09.633Z,97.50
2018-11-26T04:17:12.796Z,97.50
2018-11-26T04:22:15.950Z,97.50
2018-11-26T04:27:19.148Z,97.50
2018-11-26T04:32:22.337Z,97.50
2018-11-26T04:37:25.518Z,97.50
2018-11-26T04:42:28.696Z,97.50
2018-11-26T04:47:31.879Z,97.50
2018-11-26T04:52:35.135Z,97.50
2018-11-26T04:57:42.318Z,97.50
2018-11-26T05:02:41.613Z,97.50
2018-11-26T05:07:44.774Z,97.50
2018-11-26T05:12:47.966Z,97.50
2018-11-26T05:17:51.172Z,97.50
2018-11-26T05:22:54.363Z,97.50
2018-11-26T05:27:57.544Z,97.50
2018-11-26T05:33:00.724Z,97.50
2018-11-26T05:38:04.180Z,97.50
2018-11-26T05:43:07.340Z,97.50
2018-11-26T05:48:10.537Z,97.50
2018-11-26T05:53:13.693Z,97.50
2018-11-26T05:58:16.861Z,97.50
2018-11-26T06:03:20.069Z,97.50
2018-11-26T06:08:23.224Z,97.50
2018-11-26T06:13:26.400Z,97.50
2018-11-26T06:18:29.576Z,97.50
2018-11-26T06:23:32.746Z,97.50
2018-11-26T06:28:35.916Z,97.50
2018-11-26T06:33:39.071Z,97.50
2018-11-26T06:38:42.241Z,97.50
2018-11-26T06:43:45.410Z,97.50
2018-11-26T06:48:48.617Z,97.50
2018-11-26T06:53:51.872Z,97.50
2018-11-26T06:58:55.029Z,97.50
2018-11-26T07:03:58.188Z,97.50
2018-11-26T07:09:01.349Z,97.50
2018-11-26T07:14:05.370Z,97.50
2018-11-26T07:19:08.536Z,97.50
2018-11-26T07:24:11.688Z,97.50
2018-11-26T07:29:14.880Z,97.50
2018-11-26T07:34:18.064Z,97.50
2018-11-26T07:39:21.271Z,97.50
2018-11-26T07:44:24.465Z,97.50
2018-11-26T07:49:27.620Z,97.50
2018-11-26T07:54:30.772Z,97.50
2018-11-26T07:59:33.940Z,97.50
2018-11-26T08:04:37.109Z,97.50
2018-11-26T08:09:40.272Z,97.50
2018-11-26T08:14:43.445Z,97.50
2018-11-26T08:19:46.633Z,97.50
2018-11-26T08:24:49.889Z,97.50
2018-11-26T08:29:53.058Z,97.50
2018-11-26T08:34:56.224Z,97.50
2018-11-26T08:40:04.913Z,97.50
2018-11-26T08:45:14.328Z,97.50
2018-11-26T08:50:17.515Z,97.50
2018-11-26T08:55:20.796Z,97.50
2018-11-26T09:00:23.975Z,97.50
2018-11-26T09:05:32.593Z,97.50
2018-11-26T09:10:35.830Z,97.50
2018-11-26T09:15:38.962Z,97.50
2018-11-26T09:20:42.137Z,97.50
2018-11-26T09:25:46.208Z,97.50
2018-11-26T09:30:49.416Z,97.50
2018-11-26T09:35:52.744Z,97.50
2018-11-26T09:40:56.113Z,97.50
2018-11-26T09:45:59.296Z,97.50
2018-11-26T09:51:02.687Z,97.50
2018-11-26T09:56:12.485Z,97.50
2018-11-26T10:01:15.666Z,97.50
2018-11-26T10:06:18.848Z,97.50
2018-11-26T10:11:22.033Z,97.50
2018-11-26T10:16:25.229Z,97.50
2018-11-26T10:21:28.401Z,97.50
2018-11-26T10:26:31.596Z,97.50
2018-11-26T10:31:34.800Z,97.50
2018-11-26T10:36:38.016Z,97.50
2018-11-26T10:41:41.279Z,96.40
2018-11-26T10:46:44.452Z,96.90
2018-11-26T10:51:47.648Z,96.30
2018-11-26T10:56:50.908Z,96.00
2018-11-26T11:02:59.840Z,96.10
2018-11-26T11:08:03.027Z,95.60
2018-11-26T11:13:06.833Z,94.70
2018-11-26T11:18:10.004Z,95.80
2018-11-26T11:23:13.184Z,95.50
2018-11-26T11:28:16.362Z,94.00
2018-11-26T11:38:22.918Z,95.90
2018-11-26T11:43:26.119Z,94.20
2018-11-26T11:48:29.282Z,94.60
2018-11-26T11:53:32.469Z,93.60
2018-11-26T11:58:35.658Z,93.40
2018-11-26T12:03:38.889Z,93.10
2018-11-26T12:08:42.025Z,93.50
2018-11-26T12:13:45.209Z,94.40
2018-11-26T12:18:48.419Z,94.60
2018-11-26T12:23:51.634Z,94.50
2018-11-26T12:28:54.883Z,93.60
2018-11-26T12:33:58.029Z,93.70
2018-11-26T12:39:01.197Z,93.60
2018-11-26T12:44:04.380Z,94.00
2018-11-26T12:49:07.645Z,94.00
2018-11-26T12:54:10.846Z,93.40
2018-11-26T12:59:14.090Z,93.30
2018-11-26T13:04:17.264Z,93.70
2018-11-26T13:09:20.511Z,94.30
2018-11-26T13:14:23.685Z,94.20
2018-11-26T13:19:26.870Z,94.30
2018-11-26T13:24:30.058Z,94.30
2018-11-26T13:29:33.298Z,94.60
2018-11-26T13:34:36.958Z,93.90
2018-11-26T13:39:39.812Z,94.10
2018-11-26T13:44:42.986Z,94.00
2018-11-26T13:49:46.337Z,93.90
2018-11-26T13:54:49.502Z,94.20
2018-11-26T13:59:52.738Z,94.30
2018-11-26T14:04:55.922Z,94.90
2018-11-26T14:09:59.136Z,94.50
2018-11-26T14:15:02.406Z,94.00
2018-11-26T14:20:08.205Z,93.20
2018-11-26T14:25:15.281Z,93.30
2018-11-26T14:30:22.930Z,93.50
2018-11-26T14:35:26.189Z,93.20
2018-11-26T14:40:32.829Z,93.40
2018-11-26T14:45:36.026Z,93.40
2018-11-26T14:50:39.227Z,93.50
2018-11-26T14:55:42.401Z,93.50
2018-11-26T15:00:45.686Z,93.10
2018-11-26T15:05:48.887Z,93.10
2018-11-26T15:10:52.069Z,93.30
2018-11-26T15:15:55.267Z,93.00
2018-11-26T15:20:58.477Z,92.80
2018-11-26T15:26:01.687Z,93.20
2018-11-26T15:31:05.000Z,93.10
2018-11-26T15:36:08.194Z,93.50
2018-11-26T15:41:11.373Z,93.30
2018-11-26T15:46:14.702Z,92.50
2018-11-26T15:51:17.982Z,93.10
2018-11-26T15:56:21.200Z,93.10
2018-11-26T16:01:24.390Z,92.90
2018-11-26T16:06:27.583Z,93.30
2018-11-26T16:11:30.834Z,92.80
2018-11-26T16:16:34.130Z,93.30
2018-11-26T16:21:37.430Z,93.10
2018-11-26T16:26:40.641Z,92.80
2018-11-26T16:31:43.855Z,93.30
2018-11-26T16:36:47.055Z,93.50
2018-11-26T16:41:50.304Z,93.20
2018-11-26T16:46:53.497Z,93.50
2018-11-26T16:51:56.682Z,93.80
2018-11-26T16:56:59.870Z,93.70
2018-11-26T17:02:03.105Z,93.70
2018-11-26T17:07:06.338Z,93.70
2018-11-26T17:12:09.561Z,93.80
2018-11-26T17:17:12.746Z,93.50
2018-11-26T17:22:15.946Z,93.50
2018-11-26T17:27:19.142Z,93.20
2018-11-26T17:32:22.299Z,93.50
2018-11-26T17:37:25.466Z,93.50
2018-11-26T17:42:28.645Z,94.10
2018-11-26T17:47:31.801Z,94.10
2018-11-26T17:52:34.973Z,94.40
2018-11-26T17:57:38.486Z,94.60
2018-11-26T18:02:42.907Z,94.70
2018-11-26T18:07:48.706Z,94.80
2018-11-26T18:12:51.885Z,94.70
2018-11-26T18:17:55.223Z,94.90
2018-11-26T18:22:58.565Z,95.00
2018-11-26T18:28:05.736Z,95.00
2018-11-26T18:33:08.996Z,95.30
2018-11-26T18:38:12.687Z,95.10
2018-11-26T18:43:16.113Z,96.00
2018-11-26T18:48:19.321Z,95.30
2018-11-26T18:53:22.558Z,95.40
2018-11-26T18:58:25.753Z,95.40
2018-11-26T19:03:29.025Z,95.60
2018-11-26T19:08:32.290Z,95.10
2018-11-26T19:13:43.627Z,95.10
2018-11-26T19:18:46.885Z,95.10
2018-11-26T19:23:50.097Z,95.30
2018-11-26T19:28:53.314Z,95.50
2018-11-26T19:33:56.676Z,95.50
2018-11-26T19:39:00.018Z,95.40
2018-11-26T19:44:03.276Z,95.70
2018-11-26T19:49:06.666Z,95.60
2018-11-26T19:54:09.866Z,96.10
2018-11-26T19:59:13.144Z,95.30
2018-11-26T20:04:23.291Z,95.40
2018-11-26T20:09:26.595Z,95.30
2018-11-26T20:14:29.758Z,95.60
2018-11-26T20:19:33.241Z,95.50
2018-11-26T20:24:36.586Z,95.70
2018-11-26T20:29:40.049Z,96.00
2018-11-26T20:34:43.366Z,96.40
2018-11-26T20:39:46.830Z,96.40
2018-11-26T20:44:50.050Z,96.20
2018-11-26T20:49:53.248Z,96.50
2018-11-26T20:54:56.434Z,96.60
2018-11-26T20:59:59.626Z,96.80
2018-11-26T21:05:02.837Z,96.80
2018-11-26T21:10:08.925Z,96.80
2018-11-26T21:15:13.989Z,97.40
2018-11-26T21:20:23.023Z,97.50
2018-11-26T21:25:26.266Z,97.50
2018-11-26T21:30:29.439Z,97.50
2018-11-26T21:35:32.634Z,97.50
2018-11-26T21:40:35.792Z,97.50
2018-11-26T21:45:43.970Z,97.50
2018-11-26T21:50:47.146Z,97.50
2018-11-26T21:55:50.341Z,97.50
2018-11-26T22:00:55.452Z,97.50
2018-11-26T22:05:58.610Z,97.50
2018-11-26T22:11:01.785Z,97.50
2018-11-26T22:16:05.190Z,97.50
2018-11-26T22:21:08.352Z,97.50
2018-11-26T22:26:11.529Z,97.50
2018-11-26T22:31:14.782Z,97.50
2018-11-26T22:36:17.981Z,97.50
2018-11-26T22:41:21.178Z,97.50
2018-11-26T22:46:24.379Z,97.50
2018-11-26T22:51:27.546Z,97.50
2018-11-26T22:56:30.746Z,97.50
2018-11-26T23:01:33.947Z,97.50
2018-11-26T23:06:37.150Z,97.50
2018-11-26T23:11:40.358Z,97.50
2018-11-26T23:16:43.649Z,97.50
2018-11-26T23:21:46.822Z,97.50
2018-11-26T23:26:50.030Z,97.50
2018-11-26T23:31:53.246Z,97.50
2018-11-26T23:36:56.445Z,97.50
2018-11-26T23:41:59.630Z,97.50
2018-11-26T23:47:02.901Z,97.50
2018-11-26T23:52:06.106Z,97.50
2018-11-26T23:57:09.315Z,97.50
